sensor_id;sensor_type;location;lat;lon;timestamp;P1;durP1;ratioP1;P2;durP2;ratioP2
35506;SDS011;36461;52.018;21.036;2023-06-14T00:00:00;6.00;;;4.30;;
35506;SDS011;36461;52.018;21.036;2023-06-14T00:02:32;6.00;;;4.60;;
35506;SDS011;36461;52.018;21.036;2023-06-14T00:05:01;6.30;;;4.60;;
35506;SDS011;36461;52.018;21.036;2023-06-14T00:07:33;6.30;;;4.90;;
35506;SDS011;36461;52.018;21.036;2023-06-14T00:10:10;5.40;;;4.40;;
35506;SDS011;36461;52.018;21.036;2023-06-14T00:12:40;10.50;;;5.10;;
35506;SDS011;36461;52.018;21.036;2023-06-14T00:15:09;6.90;;;4.30;;
35506;SDS011;36461;52.018;21.036;2023-06-14T00:17:37;8.60;;;4.90;;
35506;SDS011;36461;52.018;21.036;2023-06-14T00:20:07;6.10;;;4.90;;
35506;SDS011;36461;52.018;21.036;2023-06-14T00:22:37;5.80;;;4.30;;
35506;SDS011;36461;52.018;21.036;2023-06-14T00:25:07;6.00;;;4.60;;
35506;SDS011;36461;52.018;21.036;2023-06-14T00:27:54;5.70;;;4.50;;
35506;SDS011;36461;52.018;21.036;2023-06-14T00:30:24;8.50;;;5.10;;
35506;SDS011;36461;52.018;21.036;2023-06-14T00:32:53;6.30;;;4.70;;
35506;SDS011;36461;52.018;21.036;2023-06-14T00:35:21;5.30;;;4.40;;
35506;SDS011;36461;52.018;21.036;2023-06-14T00:37:49;7.40;;;4.80;;
35506;SDS011;36461;52.018;21.036;2023-06-14T00:40:18;6.60;;;4.90;;
35506;SDS011;36461;52.018;21.036;2023-06-14T00:42:46;7.70;;;4.50;;
35506;SDS011;36461;52.018;21.036;2023-06-14T00:45:15;5.80;;;4.80;;
35506;SDS011;36461;52.018;21.036;2023-06-14T00:47:43;9.40;;;5.50;;
35506;SDS011;36461;52.018;21.036;2023-06-14T00:50:14;8.20;;;5.30;;
35506;SDS011;36461;52.018;21.036;2023-06-14T00:52:42;8.50;;;5.70;;
35506;SDS011;36461;52.018;21.036;2023-06-14T00:55:11;7.80;;;5.00;;
35506;SDS011;36461;52.018;21.036;2023-06-14T00:57:39;7.10;;;5.40;;
35506;SDS011;36461;52.018;21.036;2023-06-14T01:00:08;6.10;;;4.70;;
35506;SDS011;36461;52.018;21.036;2023-06-14T01:02:38;7.40;;;5.50;;
35506;SDS011;36461;52.018;21.036;2023-06-14T01:05:09;6.80;;;5.10;;
35506;SDS011;36461;52.018;21.036;2023-06-14T01:07:51;8.50;;;5.70;;
35506;SDS011;36461;52.018;21.036;2023-06-14T01:10:53;6.30;;;4.80;;
35506;SDS011;36461;52.018;21.036;2023-06-14T01:13:29;6.20;;;5.30;;
35506;SDS011;36461;52.018;21.036;2023-06-14T01:16:04;7.70;;;5.70;;
35506;SDS011;36461;52.018;21.036;2023-06-14T01:18:34;6.80;;;5.50;;
35506;SDS011;36461;52.018;21.036;2023-06-14T01:21:03;8.30;;;6.20;;
35506;SDS011;36461;52.018;21.036;2023-06-14T01:23:34;9.20;;;6.00;;
35506;SDS011;36461;52.018;21.036;2023-06-14T01:26:02;8.10;;;5.50;;
35506;SDS011;36461;52.018;21.036;2023-06-14T01:28:34;7.30;;;5.60;;
35506;SDS011;36461;52.018;21.036;2023-06-14T01:31:03;7.30;;;5.40;;
35506;SDS011;36461;52.018;21.036;2023-06-14T01:33:33;7.30;;;5.50;;
35506;SDS011;36461;52.018;21.036;2023-06-14T01:36:04;8.30;;;5.20;;
35506;SDS011;36461;52.018;21.036;2023-06-14T01:38:35;8.30;;;5.70;;
35506;SDS011;36461;52.018;21.036;2023-06-14T01:41:05;7.70;;;5.60;;
35506;SDS011;36461;52.018;21.036;2023-06-14T01:43:34;8.20;;;6.20;;
35506;SDS011;36461;52.018;21.036;2023-06-14T01:46:05;7.70;;;6.10;;
35506;SDS011;36461;52.018;21.036;2023-06-14T01:48:34;7.50;;;5.80;;
35506;SDS011;36461;52.018;21.036;2023-06-14T01:51:04;8.20;;;6.70;;
35506;SDS011;36461;52.018;21.036;2023-06-14T01:53:32;9.20;;;6.20;;
35506;SDS011;36461;52.018;21.036;2023-06-14T01:56:00;6.50;;;5.60;;
35506;SDS011;36461;52.018;21.036;2023-06-14T01:58:31;8.50;;;6.40;;
35506;SDS011;36461;52.018;21.036;2023-06-14T02:00:59;12.00;;;6.30;;
35506;SDS011;36461;52.018;21.036;2023-06-14T02:03:28;8.00;;;6.40;;
35506;SDS011;36461;52.018;21.036;2023-06-14T02:05:58;7.40;;;6.30;;
35506;SDS011;36461;52.018;21.036;2023-06-14T02:08:27;9.80;;;6.40;;
35506;SDS011;36461;52.018;21.036;2023-06-14T02:10:55;7.10;;;6.00;;
35506;SDS011;36461;52.018;21.036;2023-06-14T02:13:23;7.60;;;5.90;;
35506;SDS011;36461;52.018;21.036;2023-06-14T02:15:51;10.10;;;6.20;;
35506;SDS011;36461;52.018;21.036;2023-06-14T02:18:23;9.60;;;5.90;;
35506;SDS011;36461;52.018;21.036;2023-06-14T02:20:51;8.20;;;6.10;;
35506;SDS011;36461;52.018;21.036;2023-06-14T02:23:19;9.90;;;5.80;;
35506;SDS011;36461;52.018;21.036;2023-06-14T02:25:48;8.80;;;6.80;;
35506;SDS011;36461;52.018;21.036;2023-06-14T02:28:16;7.60;;;6.10;;
35506;SDS011;36461;52.018;21.036;2023-06-14T02:30:44;6.70;;;5.90;;
35506;SDS011;36461;52.018;21.036;2023-06-14T02:33:12;8.30;;;6.50;;
35506;SDS011;36461;52.018;21.036;2023-06-14T02:35:41;7.60;;;6.20;;
35506;SDS011;36461;52.018;21.036;2023-06-14T02:38:09;9.10;;;6.60;;
35506;SDS011;36461;52.018;21.036;2023-06-14T02:40:37;8.30;;;6.60;;
35506;SDS011;36461;52.018;21.036;2023-06-14T02:43:06;8.20;;;6.00;;
35506;SDS011;36461;52.018;21.036;2023-06-14T02:45:34;7.50;;;6.50;;
35506;SDS011;36461;52.018;21.036;2023-06-14T02:48:02;9.50;;;6.90;;
35506;SDS011;36461;52.018;21.036;2023-06-14T02:50:31;8.00;;;5.90;;
35506;SDS011;36461;52.018;21.036;2023-06-14T02:53:00;9.80;;;6.30;;
35506;SDS011;36461;52.018;21.036;2023-06-14T02:55:28;7.30;;;6.00;;
35506;SDS011;36461;52.018;21.036;2023-06-14T02:57:56;10.00;;;6.60;;
35506;SDS011;36461;52.018;21.036;2023-06-14T03:00:26;8.10;;;6.30;;
35506;SDS011;36461;52.018;21.036;2023-06-14T03:02:54;7.50;;;6.10;;
35506;SDS011;36461;52.018;21.036;2023-06-14T03:05:23;9.10;;;6.00;;
35506;SDS011;36461;52.018;21.036;2023-06-14T03:07:52;7.90;;;6.40;;
35506;SDS011;36461;52.018;21.036;2023-06-14T03:10:21;8.40;;;6.90;;
35506;SDS011;36461;52.018;21.036;2023-06-14T03:12:50;10.30;;;6.00;;
35506;SDS011;36461;52.018;21.036;2023-06-14T03:15:20;7.40;;;5.90;;
35506;SDS011;36461;52.018;21.036;2023-06-14T03:17:52;8.50;;;6.80;;
35506;SDS011;36461;52.018;21.036;2023-06-14T03:20:21;7.60;;;6.10;;
35506;SDS011;36461;52.018;21.036;2023-06-14T03:22:50;8.90;;;6.70;;
35506;SDS011;36461;52.018;21.036;2023-06-14T03:25:20;17.40;;;7.20;;
35506;SDS011;36461;52.018;21.036;2023-06-14T03:27:50;7.50;;;6.10;;
35506;SDS011;36461;52.018;21.036;2023-06-14T03:30:18;8.40;;;6.60;;
35506;SDS011;36461;52.018;21.036;2023-06-14T03:32:47;9.60;;;6.90;;
35506;SDS011;36461;52.018;21.036;2023-06-14T03:35:16;9.40;;;7.30;;
35506;SDS011;36461;52.018;21.036;2023-06-14T03:37:47;8.50;;;6.50;;
35506;SDS011;36461;52.018;21.036;2023-06-14T03:40:17;8.70;;;6.50;;
35506;SDS011;36461;52.018;21.036;2023-06-14T03:42:49;10.00;;;7.40;;
35506;SDS011;36461;52.018;21.036;2023-06-14T03:45:17;7.80;;;5.80;;
35506;SDS011;36461;52.018;21.036;2023-06-14T03:47:45;8.10;;;6.30;;
35506;SDS011;36461;52.018;21.036;2023-06-14T03:50:13;7.90;;;6.40;;
35506;SDS011;36461;52.018;21.036;2023-06-14T03:52:43;8.50;;;6.70;;
35506;SDS011;36461;52.018;21.036;2023-06-14T03:55:12;9.30;;;6.30;;
35506;SDS011;36461;52.018;21.036;2023-06-14T03:57:44;8.50;;;6.80;;
35506;SDS011;36461;52.018;21.036;2023-06-14T04:00:15;9.10;;;6.30;;
35506;SDS011;36461;52.018;21.036;2023-06-14T04:02:44;10.10;;;7.00;;
35506;SDS011;36461;52.018;21.036;2023-06-14T04:05:13;9.80;;;6.40;;
35506;SDS011;36461;52.018;21.036;2023-06-14T04:07:47;9.00;;;7.00;;
35506;SDS011;36461;52.018;21.036;2023-06-14T04:10:16;7.70;;;6.60;;
35506;SDS011;36461;52.018;21.036;2023-06-14T04:12:45;10.40;;;7.10;;
35506;SDS011;36461;52.018;21.036;2023-06-14T04:15:13;7.20;;;6.30;;
35506;SDS011;36461;52.018;21.036;2023-06-14T04:17:50;8.30;;;6.40;;
35506;SDS011;36461;52.018;21.036;2023-06-14T04:20:21;9.50;;;6.40;;
35506;SDS011;36461;52.018;21.036;2023-06-14T04:22:50;8.10;;;6.20;;
35506;SDS011;36461;52.018;21.036;2023-06-14T04:25:19;7.80;;;7.00;;
35506;SDS011;36461;52.018;21.036;2023-06-14T04:27:51;8.10;;;6.90;;
35506;SDS011;36461;52.018;21.036;2023-06-14T04:30:21;8.40;;;6.70;;
35506;SDS011;36461;52.018;21.036;2023-06-14T04:32:53;7.30;;;6.20;;
35506;SDS011;36461;52.018;21.036;2023-06-14T04:35:24;9.10;;;6.60;;
35506;SDS011;36461;52.018;21.036;2023-06-14T04:37:54;7.80;;;6.30;;
35506;SDS011;36461;52.018;21.036;2023-06-14T04:40:23;10.70;;;6.80;;
35506;SDS011;36461;52.018;21.036;2023-06-14T04:42:52;10.20;;;6.30;;
35506;SDS011;36461;52.018;21.036;2023-06-14T04:45:22;9.00;;;6.70;;
35506;SDS011;36461;52.018;21.036;2023-06-14T04:47:51;8.80;;;7.40;;
35506;SDS011;36461;52.018;21.036;2023-06-14T04:50:27;7.70;;;6.30;;
35506;SDS011;36461;52.018;21.036;2023-06-14T04:52:57;8.20;;;6.50;;
35506;SDS011;36461;52.018;21.036;2023-06-14T04:55:28;7.00;;;6.30;;
35506;SDS011;36461;52.018;21.036;2023-06-14T04:57:57;10.20;;;7.20;;
35506;SDS011;36461;52.018;21.036;2023-06-14T05:00:27;7.90;;;6.50;;
35506;SDS011;36461;52.018;21.036;2023-06-14T05:02:55;9.00;;;6.60;;
35506;SDS011;36461;52.018;21.036;2023-06-14T05:05:28;12.50;;;6.90;;
35506;SDS011;36461;52.018;21.036;2023-06-14T05:07:56;10.30;;;6.80;;
35506;SDS011;36461;52.018;21.036;2023-06-14T05:10:25;7.70;;;6.90;;
35506;SDS011;36461;52.018;21.036;2023-06-14T05:12:54;7.50;;;6.70;;
35506;SDS011;36461;52.018;21.036;2023-06-14T05:15:22;9.80;;;6.30;;
35506;SDS011;36461;52.018;21.036;2023-06-14T05:17:53;8.30;;;6.70;;
35506;SDS011;36461;52.018;21.036;2023-06-14T05:20:23;7.40;;;6.20;;
35506;SDS011;36461;52.018;21.036;2023-06-14T05:22:52;7.80;;;6.50;;
35506;SDS011;36461;52.018;21.036;2023-06-14T05:25:21;8.50;;;6.80;;
35506;SDS011;36461;52.018;21.036;2023-06-14T05:27:50;8.10;;;6.50;;
35506;SDS011;36461;52.018;21.036;2023-06-14T05:30:18;7.50;;;6.50;;
35506;SDS011;36461;52.018;21.036;2023-06-14T05:32:46;9.80;;;6.20;;
35506;SDS011;36461;52.018;21.036;2023-06-14T05:35:15;8.10;;;6.40;;
35506;SDS011;36461;52.018;21.036;2023-06-14T05:37:44;11.00;;;6.90;;
35506;SDS011;36461;52.018;21.036;2023-06-14T05:40:12;7.00;;;6.30;;
35506;SDS011;36461;52.018;21.036;2023-06-14T05:42:41;6.70;;;5.90;;
35506;SDS011;36461;52.018;21.036;2023-06-14T05:45:09;8.50;;;6.00;;
35506;SDS011;36461;52.018;21.036;2023-06-14T05:47:38;8.30;;;6.00;;
35506;SDS011;36461;52.018;21.036;2023-06-14T05:50:06;7.50;;;5.70;;
35506;SDS011;36461;52.018;21.036;2023-06-14T05:52:35;7.40;;;5.70;;
35506;SDS011;36461;52.018;21.036;2023-06-14T05:55:04;9.30;;;7.20;;
35506;SDS011;36461;52.018;21.036;2023-06-14T05:57:33;7.30;;;6.50;;
35506;SDS011;36461;52.018;21.036;2023-06-14T06:00:02;7.10;;;6.30;;
35506;SDS011;36461;52.018;21.036;2023-06-14T06:02:43;8.20;;;6.20;;
35506;SDS011;36461;52.018;21.036;2023-06-14T06:05:12;11.70;;;6.10;;
35506;SDS011;36461;52.018;21.036;2023-06-14T06:07:42;8.20;;;6.50;;
35506;SDS011;36461;52.018;21.036;2023-06-14T06:10:12;7.30;;;6.30;;
35506;SDS011;36461;52.018;21.036;2023-06-14T06:12:41;8.00;;;6.60;;
35506;SDS011;36461;52.018;21.036;2023-06-14T06:15:10;8.50;;;5.60;;
35506;SDS011;36461;52.018;21.036;2023-06-14T06:17:42;9.00;;;6.30;;
35506;SDS011;36461;52.018;21.036;2023-06-14T06:20:23;8.50;;;6.00;;
35506;SDS011;36461;52.018;21.036;2023-06-14T06:22:57;7.70;;;5.90;;
35506;SDS011;36461;52.018;21.036;2023-06-14T06:25:26;6.80;;;5.30;;
35506;SDS011;36461;52.018;21.036;2023-06-14T06:27:55;9.10;;;5.60;;
35506;SDS011;36461;52.018;21.036;2023-06-14T06:30:24;7.90;;;5.60;;
35506;SDS011;36461;52.018;21.036;2023-06-14T06:32:54;9.20;;;6.70;;
35506;SDS011;36461;52.018;21.036;2023-06-14T06:35:24;7.50;;;5.80;;
35506;SDS011;36461;52.018;21.036;2023-06-14T06:37:52;8.40;;;5.80;;
35506;SDS011;36461;52.018;21.036;2023-06-14T06:40:21;8.50;;;5.80;;
35506;SDS011;36461;52.018;21.036;2023-06-14T06:42:49;7.30;;;5.60;;
35506;SDS011;36461;52.018;21.036;2023-06-14T06:45:19;7.90;;;5.60;;
35506;SDS011;36461;52.018;21.036;2023-06-14T06:47:49;8.80;;;5.10;;
35506;SDS011;36461;52.018;21.036;2023-06-14T06:50:18;5.90;;;5.10;;
35506;SDS011;36461;52.018;21.036;2023-06-14T06:52:48;8.80;;;5.60;;
35506;SDS011;36461;52.018;21.036;2023-06-14T06:55:16;7.50;;;5.30;;
35506;SDS011;36461;52.018;21.036;2023-06-14T06:57:45;9.20;;;4.70;;
35506;SDS011;36461;52.018;21.036;2023-06-14T07:00:13;8.40;;;5.10;;
35506;SDS011;36461;52.018;21.036;2023-06-14T07:02:43;6.60;;;4.70;;
35506;SDS011;36461;52.018;21.036;2023-06-14T07:05:12;6.80;;;5.10;;
35506;SDS011;36461;52.018;21.036;2023-06-14T07:07:41;6.50;;;5.20;;
35506;SDS011;36461;52.018;21.036;2023-06-14T07:10:09;8.00;;;5.10;;
35506;SDS011;36461;52.018;21.036;2023-06-14T07:12:38;7.10;;;5.40;;
35506;SDS011;36461;52.018;21.036;2023-06-14T07:15:07;6.40;;;4.60;;
35506;SDS011;36461;52.018;21.036;2023-06-14T07:17:36;6.30;;;4.90;;
35506;SDS011;36461;52.018;21.036;2023-06-14T07:20:05;11.30;;;6.00;;
35506;SDS011;36461;52.018;21.036;2023-06-14T07:22:35;7.80;;;5.60;;
35506;SDS011;36461;52.018;21.036;2023-06-14T07:25:04;8.20;;;5.80;;
35506;SDS011;36461;52.018;21.036;2023-06-14T07:27:33;8.70;;;5.00;;
35506;SDS011;36461;52.018;21.036;2023-06-14T07:30:01;6.90;;;5.00;;
35506;SDS011;36461;52.018;21.036;2023-06-14T07:32:29;5.10;;;4.60;;
35506;SDS011;36461;52.018;21.036;2023-06-14T07:34:58;6.60;;;4.90;;
35506;SDS011;36461;52.018;21.036;2023-06-14T07:37:26;6.40;;;4.60;;
35506;SDS011;36461;52.018;21.036;2023-06-14T07:39:54;10.60;;;4.30;;
35506;SDS011;36461;52.018;21.036;2023-06-14T07:42:23;8.40;;;4.60;;
35506;SDS011;36461;52.018;21.036;2023-06-14T07:44:51;5.40;;;4.20;;
35506;SDS011;36461;52.018;21.036;2023-06-14T07:47:20;5.50;;;4.30;;
35506;SDS011;36461;52.018;21.036;2023-06-14T07:49:49;5.60;;;4.10;;
35506;SDS011;36461;52.018;21.036;2023-06-14T07:52:17;6.10;;;4.40;;
35506;SDS011;36461;52.018;21.036;2023-06-14T07:54:46;6.00;;;4.00;;
35506;SDS011;36461;52.018;21.036;2023-06-14T07:57:14;5.50;;;4.70;;
35506;SDS011;36461;52.018;21.036;2023-06-14T07:59:42;6.90;;;4.40;;
35506;SDS011;36461;52.018;21.036;2023-06-14T08:02:10;8.30;;;4.80;;
35506;SDS011;36461;52.018;21.036;2023-06-14T08:04:39;5.80;;;4.70;;
35506;SDS011;36461;52.018;21.036;2023-06-14T08:07:07;5.80;;;4.60;;
35506;SDS011;36461;52.018;21.036;2023-06-14T08:09:35;6.10;;;4.70;;
35506;SDS011;36461;52.018;21.036;2023-06-14T08:12:06;5.90;;;4.40;;
35506;SDS011;36461;52.018;21.036;2023-06-14T08:14:38;5.60;;;5.00;;
35506;SDS011;36461;52.018;21.036;2023-06-14T08:17:07;7.90;;;4.60;;
35506;SDS011;36461;52.018;21.036;2023-06-14T08:19:36;7.60;;;4.70;;
35506;SDS011;36461;52.018;21.036;2023-06-14T08:22:05;7.50;;;5.10;;
35506;SDS011;36461;52.018;21.036;2023-06-14T08:24:33;6.40;;;4.50;;
35506;SDS011;36461;52.018;21.036;2023-06-14T08:27:01;8.60;;;5.20;;
35506;SDS011;36461;52.018;21.036;2023-06-14T08:29:29;5.60;;;5.00;;
35506;SDS011;36461;52.018;21.036;2023-06-14T08:32:00;7.60;;;5.20;;
35506;SDS011;36461;52.018;21.036;2023-06-14T08:34:28;5.50;;;4.90;;
35506;SDS011;36461;52.018;21.036;2023-06-14T08:36:57;6.20;;;5.20;;
35506;SDS011;36461;52.018;21.036;2023-06-14T08:39:25;8.50;;;5.30;;
35506;SDS011;36461;52.018;21.036;2023-06-14T08:41:54;7.10;;;5.10;;
35506;SDS011;36461;52.018;21.036;2023-06-14T08:44:24;5.60;;;5.00;;
35506;SDS011;36461;52.018;21.036;2023-06-14T08:46:53;8.50;;;6.00;;
35506;SDS011;36461;52.018;21.036;2023-06-14T08:49:25;6.90;;;5.80;;
35506;SDS011;36461;52.018;21.036;2023-06-14T08:51:56;6.50;;;5.20;;
35506;SDS011;36461;52.018;21.036;2023-06-14T08:54:27;8.40;;;5.20;;
35506;SDS011;36461;52.018;21.036;2023-06-14T08:57:02;6.00;;;4.90;;
35506;SDS011;36461;52.018;21.036;2023-06-14T08:59:34;5.20;;;4.60;;
35506;SDS011;36461;52.018;21.036;2023-06-14T09:02:06;7.00;;;5.40;;
35506;SDS011;36461;52.018;21.036;2023-06-14T09:04:40;10.20;;;5.30;;
35506;SDS011;36461;52.018;21.036;2023-06-14T09:07:09;7.50;;;5.20;;
35506;SDS011;36461;52.018;21.036;2023-06-14T09:09:40;8.30;;;4.50;;
35506;SDS011;36461;52.018;21.036;2023-06-14T09:12:30;7.20;;;4.00;;
35506;SDS011;36461;52.018;21.036;2023-06-14T09:14:58;8.20;;;4.70;;
35506;SDS011;36461;52.018;21.036;2023-06-14T09:17:27;8.20;;;4.50;;
35506;SDS011;36461;52.018;21.036;2023-06-14T09:19:55;6.30;;;4.20;;
35506;SDS011;36461;52.018;21.036;2023-06-14T09:22:24;10.40;;;4.30;;
35506;SDS011;36461;52.018;21.036;2023-06-14T09:24:53;9.40;;;5.00;;
35506;SDS011;36461;52.018;21.036;2023-06-14T09:27:21;6.40;;;4.40;;
35506;SDS011;36461;52.018;21.036;2023-06-14T09:29:49;6.70;;;4.80;;
35506;SDS011;36461;52.018;21.036;2023-06-14T09:32:17;6.30;;;4.50;;
35506;SDS011;36461;52.018;21.036;2023-06-14T09:34:46;7.30;;;4.30;;
35506;SDS011;36461;52.018;21.036;2023-06-14T09:37:30;5.70;;;3.70;;
35506;SDS011;36461;52.018;21.036;2023-06-14T09:40:00;8.40;;;5.00;;
35506;SDS011;36461;52.018;21.036;2023-06-14T09:42:28;9.40;;;5.00;;
35506;SDS011;36461;52.018;21.036;2023-06-14T09:44:57;9.70;;;5.80;;
35506;SDS011;36461;52.018;21.036;2023-06-14T09:47:25;6.90;;;5.50;;
35506;SDS011;36461;52.018;21.036;2023-06-14T09:49:54;9.70;;;5.30;;
35506;SDS011;36461;52.018;21.036;2023-06-14T09:52:23;6.20;;;5.60;;
35506;SDS011;36461;52.018;21.036;2023-06-14T09:54:54;8.80;;;4.80;;
35506;SDS011;36461;52.018;21.036;2023-06-14T09:57:23;6.00;;;4.70;;
35506;SDS011;36461;52.018;21.036;2023-06-14T09:59:56;6.00;;;5.20;;
35506;SDS011;36461;52.018;21.036;2023-06-14T10:02:38;8.70;;;5.20;;
35506;SDS011;36461;52.018;21.036;2023-06-14T10:05:15;7.80;;;5.40;;
35506;SDS011;36461;52.018;21.036;2023-06-14T10:07:53;8.00;;;5.30;;
35506;SDS011;36461;52.018;21.036;2023-06-14T10:10:35;6.10;;;4.70;;
35506;SDS011;36461;52.018;21.036;2023-06-14T10:13:07;7.80;;;4.70;;
35506;SDS011;36461;52.018;21.036;2023-06-14T10:15:45;5.90;;;5.10;;
35506;SDS011;36461;52.018;21.036;2023-06-14T10:21:16;4.70;;;4.30;;
35506;SDS011;36461;52.018;21.036;2023-06-14T10:23:46;5.30;;;4.30;;
35506;SDS011;36461;52.018;21.036;2023-06-14T10:26:20;5.90;;;5.20;;
35506;SDS011;36461;52.018;21.036;2023-06-14T10:29:23;6.60;;;4.70;;
35506;SDS011;36461;52.018;21.036;2023-06-14T10:31:45;7.00;;;4.40;;
35506;SDS011;36461;52.018;21.036;2023-06-14T10:34:24;5.20;;;4.00;;
35506;SDS011;36461;52.018;21.036;2023-06-14T10:37:11;6.00;;;4.30;;
35506;SDS011;36461;52.018;21.036;2023-06-14T10:39:42;5.70;;;4.00;;
35506;SDS011;36461;52.018;21.036;2023-06-14T10:42:13;4.80;;;3.60;;
35506;SDS011;36461;52.018;21.036;2023-06-14T10:44:46;6.90;;;4.30;;
35506;SDS011;36461;52.018;21.036;2023-06-14T10:49:51;4.40;;;3.70;;
35506;SDS011;36461;52.018;21.036;2023-06-14T10:52:22;5.80;;;4.20;;
35506;SDS011;36461;52.018;21.036;2023-06-14T10:55:05;4.90;;;4.10;;
35506;SDS011;36461;52.018;21.036;2023-06-14T10:57:53;7.00;;;4.10;;
35506;SDS011;36461;52.018;21.036;2023-06-14T11:00:28;7.60;;;4.50;;
35506;SDS011;36461;52.018;21.036;2023-06-14T11:06:21;6.30;;;4.80;;
35506;SDS011;36461;52.018;21.036;2023-06-14T11:11:36;6.10;;;4.60;;
35506;SDS011;36461;52.018;21.036;2023-06-14T11:14:06;6.00;;;4.60;;
35506;SDS011;36461;52.018;21.036;2023-06-14T11:16:34;7.00;;;4.50;;
35506;SDS011;36461;52.018;21.036;2023-06-14T11:19:03;5.00;;;4.30;;
35506;SDS011;36461;52.018;21.036;2023-06-14T11:21:32;9.60;;;6.10;;
35506;SDS011;36461;52.018;21.036;2023-06-14T11:24:01;7.10;;;4.50;;
35506;SDS011;36461;52.018;21.036;2023-06-14T11:26:30;5.40;;;4.90;;
35506;SDS011;36461;52.018;21.036;2023-06-14T11:29:01;6.30;;;4.70;;
35506;SDS011;36461;52.018;21.036;2023-06-14T11:31:30;8.10;;;5.00;;
35506;SDS011;36461;52.018;21.036;2023-06-14T11:33:59;4.90;;;4.50;;
35506;SDS011;36461;52.018;21.036;2023-06-14T11:36:30;5.20;;;4.50;;
35506;SDS011;36461;52.018;21.036;2023-06-14T11:39:01;6.40;;;4.60;;
35506;SDS011;36461;52.018;21.036;2023-06-14T11:41:41;6.50;;;3.80;;
35506;SDS011;36461;52.018;21.036;2023-06-14T11:44:11;6.30;;;4.20;;
35506;SDS011;36461;52.018;21.036;2023-06-14T11:46:40;6.50;;;4.30;;
35506;SDS011;36461;52.018;21.036;2023-06-14T11:49:08;5.00;;;3.90;;
35506;SDS011;36461;52.018;21.036;2023-06-14T11:51:37;6.80;;;3.50;;
35506;SDS011;36461;52.018;21.036;2023-06-14T11:54:06;5.10;;;3.60;;
35506;SDS011;36461;52.018;21.036;2023-06-14T11:56:36;3.50;;;3.10;;
35506;SDS011;36461;52.018;21.036;2023-06-14T11:59:05;4.90;;;3.20;;
35506;SDS011;36461;52.018;21.036;2023-06-14T12:01:35;4.90;;;3.00;;
35506;SDS011;36461;52.018;21.036;2023-06-14T12:04:06;4.30;;;2.90;;
35506;SDS011;36461;52.018;21.036;2023-06-14T12:06:35;3.70;;;3.00;;
35506;SDS011;36461;52.018;21.036;2023-06-14T12:09:08;4.80;;;3.00;;
35506;SDS011;36461;52.018;21.036;2023-06-14T12:11:46;5.50;;;3.40;;
35506;SDS011;36461;52.018;21.036;2023-06-14T12:14:14;4.00;;;3.60;;
35506;SDS011;36461;52.018;21.036;2023-06-14T12:16:43;4.10;;;3.30;;
35506;SDS011;36461;52.018;21.036;2023-06-14T12:19:15;3.90;;;3.10;;
35506;SDS011;36461;52.018;21.036;2023-06-14T12:21:47;3.70;;;3.20;;
35506;SDS011;36461;52.018;21.036;2023-06-14T12:24:19;5.50;;;3.60;;
35506;SDS011;36461;52.018;21.036;2023-06-14T12:26:48;6.50;;;3.80;;
35506;SDS011;36461;52.018;21.036;2023-06-14T12:29:16;4.20;;;2.80;;
35506;SDS011;36461;52.018;21.036;2023-06-14T12:31:47;6.10;;;3.30;;
35506;SDS011;36461;52.018;21.036;2023-06-14T12:34:16;4.40;;;3.00;;
35506;SDS011;36461;52.018;21.036;2023-06-14T12:36:44;4.20;;;3.20;;
35506;SDS011;36461;52.018;21.036;2023-06-14T12:39:14;5.70;;;3.40;;
35506;SDS011;36461;52.018;21.036;2023-06-14T12:41:42;4.50;;;3.30;;
35506;SDS011;36461;52.018;21.036;2023-06-14T12:44:11;5.60;;;3.20;;
35506;SDS011;36461;52.018;21.036;2023-06-14T12:46:41;6.40;;;3.50;;
35506;SDS011;36461;52.018;21.036;2023-06-14T12:49:11;4.50;;;3.30;;
35506;SDS011;36461;52.018;21.036;2023-06-14T12:51:40;3.70;;;3.20;;
35506;SDS011;36461;52.018;21.036;2023-06-14T12:54:08;3.20;;;2.70;;
35506;SDS011;36461;52.018;21.036;2023-06-14T12:56:37;4.30;;;2.90;;
35506;SDS011;36461;52.018;21.036;2023-06-14T12:59:06;4.80;;;2.90;;
35506;SDS011;36461;52.018;21.036;2023-06-14T13:01:37;5.00;;;3.20;;
35506;SDS011;36461;52.018;21.036;2023-06-14T13:04:07;3.20;;;2.90;;
35506;SDS011;36461;52.018;21.036;2023-06-14T13:06:35;4.10;;;2.60;;
35506;SDS011;36461;52.018;21.036;2023-06-14T13:09:04;4.30;;;3.00;;
35506;SDS011;36461;52.018;21.036;2023-06-14T13:11:33;5.80;;;3.20;;
35506;SDS011;36461;52.018;21.036;2023-06-14T13:14:01;16.10;;;14.50;;
35506;SDS011;36461;52.018;21.036;2023-06-14T13:16:50;3.90;;;3.30;;
35506;SDS011;36461;52.018;21.036;2023-06-14T13:19:18;3.60;;;2.60;;
35506;SDS011;36461;52.018;21.036;2023-06-14T13:21:47;5.40;;;2.70;;
35506;SDS011;36461;52.018;21.036;2023-06-14T13:24:15;3.00;;;2.10;;
35506;SDS011;36461;52.018;21.036;2023-06-14T13:26:44;5.40;;;2.60;;
35506;SDS011;36461;52.018;21.036;2023-06-14T13:29:12;3.40;;;2.60;;
35506;SDS011;36461;52.018;21.036;2023-06-14T13:31:41;3.20;;;2.20;;
35506;SDS011;36461;52.018;21.036;2023-06-14T13:34:09;5.30;;;2.20;;
35506;SDS011;36461;52.018;21.036;2023-06-14T13:36:37;4.40;;;2.40;;
35506;SDS011;36461;52.018;21.036;2023-06-14T13:39:06;5.20;;;2.50;;
35506;SDS011;36461;52.018;21.036;2023-06-14T13:41:34;2.90;;;2.20;;
35506;SDS011;36461;52.018;21.036;2023-06-14T13:44:03;3.20;;;2.30;;
35506;SDS011;36461;52.018;21.036;2023-06-14T13:46:31;2.80;;;1.80;;
35506;SDS011;36461;52.018;21.036;2023-06-14T13:49:00;2.30;;;2.10;;
35506;SDS011;36461;52.018;21.036;2023-06-14T13:51:30;4.40;;;2.10;;
35506;SDS011;36461;52.018;21.036;2023-06-14T13:53:58;2.80;;;2.00;;
35506;SDS011;36461;52.018;21.036;2023-06-14T13:56:26;3.40;;;1.90;;
35506;SDS011;36461;52.018;21.036;2023-06-14T13:58:55;3.70;;;2.20;;
35506;SDS011;36461;52.018;21.036;2023-06-14T14:01:24;2.60;;;2.00;;
35506;SDS011;36461;52.018;21.036;2023-06-14T14:03:53;5.60;;;2.30;;
35506;SDS011;36461;52.018;21.036;2023-06-14T14:06:22;3.90;;;2.10;;
35506;SDS011;36461;52.018;21.036;2023-06-14T14:08:50;3.50;;;2.20;;
35506;SDS011;36461;52.018;21.036;2023-06-14T14:11:19;3.00;;;1.70;;
35506;SDS011;36461;52.018;21.036;2023-06-14T14:13:48;4.20;;;2.10;;
35506;SDS011;36461;52.018;21.036;2023-06-14T14:16:16;5.50;;;2.40;;
35506;SDS011;36461;52.018;21.036;2023-06-14T14:18:45;4.00;;;2.10;;
35506;SDS011;36461;52.018;21.036;2023-06-14T14:21:14;4.50;;;2.20;;
35506;SDS011;36461;52.018;21.036;2023-06-14T14:23:43;3.20;;;2.10;;
35506;SDS011;36461;52.018;21.036;2023-06-14T14:26:13;3.30;;;2.20;;
35506;SDS011;36461;52.018;21.036;2023-06-14T14:28:42;5.30;;;2.20;;
35506;SDS011;36461;52.018;21.036;2023-06-14T14:31:10;3.80;;;1.90;;
35506;SDS011;36461;52.018;21.036;2023-06-14T14:33:39;4.00;;;2.20;;
35506;SDS011;36461;52.018;21.036;2023-06-14T14:36:07;3.00;;;1.90;;
35506;SDS011;36461;52.018;21.036;2023-06-14T14:38:35;3.10;;;1.90;;
35506;SDS011;36461;52.018;21.036;2023-06-14T14:41:04;3.10;;;2.00;;
35506;SDS011;36461;52.018;21.036;2023-06-14T14:43:32;2.50;;;2.20;;
35506;SDS011;36461;52.018;21.036;2023-06-14T14:46:00;4.00;;;2.10;;
35506;SDS011;36461;52.018;21.036;2023-06-14T14:48:28;4.10;;;2.40;;
35506;SDS011;36461;52.018;21.036;2023-06-14T14:50:56;4.00;;;2.60;;
35506;SDS011;36461;52.018;21.036;2023-06-14T14:53:25;6.30;;;2.30;;
35506;SDS011;36461;52.018;21.036;2023-06-14T14:55:53;5.50;;;2.90;;
35506;SDS011;36461;52.018;21.036;2023-06-14T14:58:21;4.80;;;2.60;;
35506;SDS011;36461;52.018;21.036;2023-06-14T15:00:49;4.30;;;2.60;;